createdAt,value
2022-12-31T00:00:36.479Z,11.80
2022-12-31T00:03:06.626Z,12.00
2022-12-31T00:05:35.906Z,11.80
2022-12-31T00:08:04.145Z,11.80
2022-12-31T00:10:34.127Z,11.80
2022-12-31T00:13:02.149Z,12.10
2022-12-31T00:15:30.271Z,11.80
2022-12-31T00:17:58.254Z,11.80
2022-12-31T00:20:27.643Z,11.80
2022-12-31T00:22:55.633Z,12.00
2022-12-31T00:25:23.887Z,11.80
2022-12-31T00:27:51.869Z,11.70
2022-12-31T00:30:19.939Z,11.80
2022-12-31T00:32:47.927Z,12.00
2022-12-31T00:35:15.866Z,11.90
2022-12-31T00:37:45.193Z,11.80
2022-12-31T00:40:13.970Z,12.10
2022-12-31T00:42:41.915Z,11.70
2022-12-31T00:45:10.522Z,11.80
2022-12-31T00:47:38.819Z,11.70
2022-12-31T00:50:07.698Z,11.80
2022-12-31T00:52:35.683Z,11.70
2022-12-31T00:55:05.858Z,11.80
2022-12-31T00:57:33.831Z,11.70
2022-12-31T01:00:01.841Z,11.70
2022-12-31T01:02:29.992Z,11.70
2022-12-31T01:04:58.063Z,12.10
2022-12-31T01:07:26.012Z,11.70
2022-12-31T01:09:54.391Z,11.70
2022-12-31T01:12:25.734Z,11.70
2022-12-31T01:14:53.706Z,12.40
2022-12-31T01:17:21.687Z,11.60
2022-12-31T01:19:49.663Z,11.80
2022-12-31T01:22:17.581Z,11.70
2022-12-31T01:24:45.512Z,11.60
2022-12-31T01:27:13.479Z,11.60
2022-12-31T01:29:42.815Z,11.50
2022-12-31T01:32:10.826Z,11.90
2022-12-31T01:34:38.779Z,11.50
2022-12-31T01:37:06.757Z,11.90
2022-12-31T01:39:34.733Z,11.60
2022-12-31T01:42:02.706Z,11.80
2022-12-31T01:44:53.324Z,11.50
2022-12-31T01:47:30.078Z,11.40
2022-12-31T01:50:02.340Z,11.60
2022-12-31T01:52:31.608Z,11.30
2022-12-31T01:55:04.318Z,11.50
2022-12-31T01:57:32.824Z,11.60
2022-12-31T02:00:02.727Z,11.30
2022-12-31T02:02:30.865Z,11.20
2022-12-31T02:05:01.234Z,11.20
2022-12-31T02:07:29.280Z,11.30
2022-12-31T02:09:57.261Z,11.20
2022-12-31T02:12:25.372Z,11.20
2022-12-31T02:14:55.534Z,11.20
2022-12-31T02:17:32.606Z,11.10
2022-12-31T02:20:40.619Z,11.60
2022-12-31T02:23:46.030Z,11.20
2022-12-31T02:26:43.718Z,11.10
2022-12-31T02:29:50.860Z,11.00
2022-12-31T02:32:26.071Z,11.00
2022-12-31T02:34:57.726Z,11.00
2022-12-31T02:37:28.776Z,11.00
2022-12-31T02:39:57.661Z,11.30
2022-12-31T02:42:25.631Z,10.90
2022-12-31T02:44:53.601Z,10.90
2022-12-31T02:47:39.726Z,10.90
2022-12-31T02:50:22.330Z,10.90
2022-12-31T02:53:04.796Z,10.80
2022-12-31T02:55:36.159Z,11.60
2022-12-31T02:58:12.951Z,10.80
2022-12-31T03:01:03.911Z,10.80
2022-12-31T03:03:33.930Z,11.20
2022-12-31T03:06:03.187Z,10.70
2022-12-31T03:08:31.413Z,10.70
2022-12-31T03:10:59.404Z,10.70
2022-12-31T03:13:26.702Z,10.60
2022-12-31T03:15:54.706Z,10.60
2022-12-31T03:18:42.911Z,10.60
2022-12-31T03:21:32.172Z,10.90
2022-12-31T03:24:17.698Z,10.50
2022-12-31T03:26:45.694Z,10.60
2022-12-31T03:29:13.707Z,10.50
2022-12-31T03:31:41.752Z,10.90
2022-12-31T03:34:09.686Z,10.70
2022-12-31T03:36:39.622Z,10.90
2022-12-31T03:39:07.645Z,10.50
2022-12-31T03:41:35.569Z,10.50
2022-12-31T03:44:03.509Z,10.40
2022-12-31T03:46:31.468Z,10.50
2022-12-31T03:48:59.670Z,10.90
2022-12-31T03:51:27.632Z,10.40
2022-12-31T03:53:56.931Z,10.40
2022-12-31T03:56:24.853Z,10.40
2022-12-31T03:58:52.916Z,10.80
2022-12-31T04:01:24.320Z,10.40
2022-12-31T04:03:52.388Z,10.40
2022-12-31T04:06:20.351Z,10.90
2022-12-31T04:08:48.345Z,10.40
2022-12-31T04:11:20.992Z,11.20
2022-12-31T04:13:49.260Z,10.40
2022-12-31T04:16:17.326Z,11.40
2022-12-31T04:18:45.278Z,10.90
2022-12-31T04:21:13.378Z,10.40
2022-12-31T04:23:41.303Z,10.40
2022-12-31T04:26:09.311Z,11.00
2022-12-31T04:28:38.798Z,11.20
2022-12-31T04:31:07.251Z,10.80
2022-12-31T04:33:35.626Z,11.10
2022-12-31T04:36:04.161Z,11.20
2022-12-31T04:38:32.358Z,10.50
2022-12-31T04:41:18.798Z,10.50
2022-12-31T04:43:49.799Z,10.50
2022-12-31T04:46:19.689Z,10.90
2022-12-31T04:48:47.840Z,10.50
2022-12-31T04:51:16.198Z,10.40
2022-12-31T04:53:44.938Z,11.50
2022-12-31T04:56:13.006Z,10.60
2022-12-31T04:58:41.447Z,10.60
2022-12-31T05:01:11.488Z,10.50
2022-12-31T05:03:39.879Z,10.50
2022-12-31T05:06:09.943Z,10.50
2022-12-31T05:08:37.928Z,10.60
2022-12-31T05:11:05.940Z,11.10
2022-12-31T05:13:34.127Z,10.80
2022-12-31T05:16:02.385Z,10.70
2022-12-31T05:18:32.567Z,11.20
2022-12-31T05:21:00.746Z,10.70
2022-12-31T05:23:28.758Z,11.50
2022-12-31T05:25:57.014Z,10.80
2022-12-31T05:28:24.985Z,10.80
2022-12-31T05:30:53.233Z,11.00
2022-12-31T05:33:21.972Z,10.80
2022-12-31T05:35:51.857Z,10.90
2022-12-31T05:38:19.823Z,10.00
2022-12-31T05:40:47.748Z,10.80
2022-12-31T05:43:15.738Z,12.10
2022-12-31T05:45:43.720Z,11.00
2022-12-31T05:48:11.716Z,11.00
2022-12-31T05:50:39.640Z,11.10
2022-12-31T05:53:08.951Z,11.10
2022-12-31T05:55:37.283Z,11.20
2022-12-31T05:58:05.251Z,11.80
2022-12-31T06:00:33.264Z,11.10
2022-12-31T06:03:01.347Z,11.10
2022-12-31T06:05:29.434Z,11.20
2022-12-31T06:07:57.499Z,11.20
2022-12-31T06:10:26.872Z,11.30
2022-12-31T06:12:54.826Z,11.40
2022-12-31T06:15:22.803Z,11.50
2022-12-31T06:17:50.780Z,11.50
2022-12-31T06:20:19.258Z,11.70
2022-12-31T06:22:47.210Z,11.70
2022-12-31T06:25:15.429Z,11.70
2022-12-31T06:27:44.775Z,11.70
2022-12-31T06:30:13.808Z,11.70
2022-12-31T06:32:42.144Z,11.70
2022-12-31T06:35:11.137Z,11.80
2022-12-31T06:37:39.070Z,11.80
2022-12-31T06:40:08.536Z,12.00
2022-12-31T06:42:36.492Z,11.80
2022-12-31T06:45:06.856Z,12.00
2022-12-31T06:47:34.834Z,11.90
2022-12-31T06:50:02.817Z,12.10
2022-12-31T06:52:30.748Z,12.00
2022-12-31T06:54:59.291Z,12.00
2022-12-31T06:57:27.768Z,12.00
2022-12-31T06:59:56.188Z,12.10
2022-12-31T07:02:52.274Z,12.10
2022-12-31T07:05:31.686Z,12.10
2022-12-31T07:08:17.284Z,12.20
2022-12-31T07:10:52.249Z,12.20
2022-12-31T07:13:47.371Z,12.20
2022-12-31T07:16:27.735Z,12.20
2022-12-31T07:19:06.698Z,12.20
2022-12-31T07:21:37.843Z,12.40
2022-12-31T07:24:07.492Z,12.30
2022-12-31T07:27:06.920Z,12.30
2022-12-31T07:29:48.210Z,12.30
2022-12-31T07:32:28.691Z,12.30
2022-12-31T07:35:10.865Z,12.50
2022-12-31T07:37:47.166Z,12.50
2022-12-31T07:40:21.322Z,12.40
2022-12-31T07:43:05.466Z,12.40
2022-12-31T07:45:39.230Z,12.30
2022-12-31T07:48:22.110Z,12.60
2022-12-31T07:50:54.445Z,12.30
2022-12-31T07:53:22.953Z,12.30
2022-12-31T07:55:55.714Z,12.30
2022-12-31T07:58:28.621Z,12.30
2022-12-31T08:00:58.507Z,12.30
2022-12-31T08:03:44.266Z,12.60
2022-12-31T08:06:20.305Z,12.30
2022-12-31T08:08:54.845Z,12.40
2022-12-31T08:11:31.427Z,12.60
2022-12-31T08:14:02.551Z,12.40
2022-12-31T08:16:31.671Z,12.40
2022-12-31T08:19:00.508Z,12.30
2022-12-31T08:21:45.100Z,12.30
2022-12-31T08:24:22.858Z,12.30
2022-12-31T08:27:01.622Z,12.40
2022-12-31T08:29:37.372Z,12.40
2022-12-31T08:32:14.238Z,12.30
2022-12-31T08:34:48.523Z,12.40
2022-12-31T08:37:26.205Z,12.50
2022-12-31T08:40:09.245Z,12.80
2022-12-31T08:42:46.102Z,12.60
2022-12-31T08:45:20.909Z,12.80
2022-12-31T08:48:00.127Z,12.70
2022-12-31T08:50:29.742Z,12.70
2022-12-31T08:53:01.344Z,12.70
2022-12-31T08:55:30.361Z,12.70
2022-12-31T08:58:11.555Z,12.70
2022-12-31T09:00:41.913Z,12.70
2022-12-31T09:03:23.431Z,12.70
2022-12-31T09:05:58.738Z,12.70
2022-12-31T09:08:34.160Z,12.80
2022-12-31T09:11:09.619Z,12.70
2022-12-31T09:13:50.845Z,12.80
2022-12-31T09:16:23.411Z,13.20
2022-12-31T09:18:51.351Z,12.90
2022-12-31T09:21:19.616Z,13.30
2022-12-31T09:23:50.128Z,12.90
2022-12-31T09:26:36.376Z,12.90
2022-12-31T09:29:13.303Z,12.90
2022-12-31T09:31:50.736Z,12.80
2022-12-31T09:34:24.838Z,12.80
2022-12-31T09:36:58.170Z,12.90
2022-12-31T09:39:38.100Z,12.90
2022-12-31T09:42:44.539Z,13.00
2022-12-31T09:45:55.434Z,12.70
2022-12-31T09:48:49.648Z,12.80
2022-12-31T09:51:28.858Z,12.70
2022-12-31T09:54:25.203Z,12.70
2022-12-31T09:57:16.253Z,12.80
2022-12-31T09:59:50.896Z,12.90
2022-12-31T10:02:29.319Z,13.00
2022-12-31T10:05:28.803Z,13.10
2022-12-31T10:08:09.392Z,13.20
2022-12-31T10:10:47.647Z,13.10
2022-12-31T10:13:31.419Z,13.10
2022-12-31T10:16:22.550Z,13.10
2022-12-31T10:19:23.709Z,13.10
2022-12-31T10:22:07.920Z,13.10
2022-12-31T10:24:49.460Z,13.20
2022-12-31T10:27:44.426Z,13.20
2022-12-31T10:30:19.113Z,13.20
2022-12-31T10:33:00.039Z,13.30
2022-12-31T10:35:32.538Z,13.30
2022-12-31T10:38:12.356Z,13.30
2022-12-31T10:41:04.589Z,13.50
2022-12-31T10:43:58.235Z,13.40
2022-12-31T10:46:55.861Z,13.40
2022-12-31T10:49:55.061Z,13.40
2022-12-31T10:53:09.706Z,13.40
2022-12-31T10:56:04.928Z,13.40
2022-12-31T10:59:08.510Z,13.40
2022-12-31T11:01:49.111Z,13.40
2022-12-31T11:04:48.467Z,13.60
2022-12-31T11:07:47.719Z,13.40
2022-12-31T11:10:50.787Z,13.40
2022-12-31T11:13:49.140Z,13.40
2022-12-31T11:16:29.726Z,13.40
2022-12-31T11:19:03.538Z,13.40
2022-12-31T11:21:58.590Z,13.40
2022-12-31T11:24:41.191Z,13.30
2022-12-31T11:27:23.512Z,13.30
2022-12-31T11:30:06.987Z,13.60
2022-12-31T11:32:48.369Z,13.30
2022-12-31T11:35:29.305Z,13.30
2022-12-31T11:38:10.168Z,13.60
2022-12-31T11:40:44.886Z,13.40
2022-12-31T11:43:22.358Z,13.40
2022-12-31T11:46:14.532Z,13.50
2022-12-31T11:48:52.450Z,13.40
2022-12-31T11:51:44.245Z,13.40
2022-12-31T11:54:43.962Z,13.50
2022-12-31T11:57:21.697Z,13.50
2022-12-31T11:59:57.757Z,13.90
2022-12-31T12:02:31.273Z,13.50
2022-12-31T12:05:10.085Z,13.50
2022-12-31T12:07:38.633Z,13.60
2022-12-31T12:10:20.737Z,13.80
2022-12-31T12:12:48.718Z,13.60
2022-12-31T12:15:22.718Z,14.10
2022-12-31T12:17:53.922Z,13.80
2022-12-31T12:20:31.778Z,13.70
2022-12-31T12:23:01.614Z,13.70
2022-12-31T12:25:40.813Z,13.60
2022-12-31T12:28:23.639Z,13.80
2022-12-31T12:31:00.130Z,13.80
2022-12-31T12:33:29.980Z,13.70
2022-12-31T12:36:09.306Z,13.60
2022-12-31T12:38:37.728Z,13.70
2022-12-31T12:41:11.157Z,13.70
2022-12-31T12:43:40.143Z,13.60
2022-12-31T12:46:21.015Z,13.90
2022-12-31T12:48:55.102Z,13.70
2022-12-31T12:51:34.585Z,13.60
2022-12-31T12:54:07.390Z,13.70
2022-12-31T12:56:43.502Z,13.70
2022-12-31T12:59:32.060Z,13.90
2022-12-31T13:02:16.531Z,13.70
2022-12-31T13:04:59.191Z,13.90
2022-12-31T13:07:39.464Z,13.70
2022-12-31T13:10:27.978Z,13.70
2022-12-31T13:13:23.280Z,13.70
2022-12-31T13:15:58.097Z,13.80
2022-12-31T13:18:39.273Z,13.70
2022-12-31T13:21:20.831Z,13.80
2022-12-31T13:23:55.183Z,13.70
2022-12-31T13:26:27.619Z,13.70
2022-12-31T13:28:58.096Z,13.70
2022-12-31T13:31:33.036Z,13.70
2022-12-31T13:34:05.583Z,13.70
2022-12-31T13:36:36.537Z,13.60
2022-12-31T13:39:12.320Z,13.70
2022-12-31T13:41:45.166Z,13.70
2022-12-31T13:44:19.296Z,13.60
2022-12-31T13:46:52.418Z,13.60
2022-12-31T13:49:26.107Z,13.70
2022-12-31T13:51:59.578Z,13.60
2022-12-31T13:54:35.767Z,13.60
2022-12-31T13:57:06.598Z,13.60
2022-12-31T13:59:39.336Z,13.50
2022-12-31T14:02:27.311Z,13.50
2022-12-31T14:05:02.166Z,13.50
2022-12-31T14:07:43.476Z,13.50
2022-12-31T14:10:14.645Z,13.50
2022-12-31T14:12:51.573Z,13.50
2022-12-31T14:15:27.455Z,13.50
2022-12-31T14:18:07.097Z,13.50
2022-12-31T14:20:44.547Z,13.40
2022-12-31T14:23:21.431Z,13.40
2022-12-31T14:25:54.394Z,14.40
2022-12-31T14:28:28.000Z,13.40
2022-12-31T14:31:03.381Z,13.40
2022-12-31T14:33:42.953Z,13.40
2022-12-31T14:36:21.050Z,13.40
2022-12-31T14:38:58.060Z,14.00
2022-12-31T14:41:44.487Z,14.20
2022-12-31T14:44:27.631Z,13.30
2022-12-31T14:47:12.820Z,13.40
2022-12-31T14:49:49.873Z,13.30
2022-12-31T14:52:23.459Z,13.30
2022-12-31T14:55:03.002Z,13.30
2022-12-31T14:58:01.702Z,13.50
2022-12-31T15:00:31.164Z,13.40
2022-12-31T15:03:02.305Z,13.40
2022-12-31T15:05:32.367Z,13.40
2022-12-31T15:08:41.011Z,13.40
2022-12-31T15:11:30.286Z,13.40
2022-12-31T15:14:20.973Z,13.30
2022-12-31T15:16:57.079Z,13.40
2022-12-31T15:20:14.957Z,13.30
2022-12-31T15:22:47.358Z,13.30
2022-12-31T15:25:38.392Z,13.40
2022-12-31T15:28:22.152Z,13.40
2022-12-31T15:30:51.472Z,13.30
2022-12-31T15:33:31.648Z,13.40
2022-12-31T15:36:14.504Z,13.30
2022-12-31T15:38:43.666Z,13.50
2022-12-31T15:41:28.288Z,13.30
2022-12-31T15:44:01.641Z,13.20
2022-12-31T15:46:33.894Z,13.30
2022-12-31T15:49:06.767Z,13.80
2022-12-31T15:51:46.436Z,13.20
2022-12-31T15:54:25.019Z,13.30
2022-12-31T15:56:54.681Z,13.20
2022-12-31T15:59:24.561Z,13.30
2022-12-31T16:01:52.954Z,13.30
2022-12-31T16:04:22.914Z,13.20
2022-12-31T16:06:53.810Z,13.80
2022-12-31T16:09:24.393Z,13.30
2022-12-31T16:11:54.089Z,13.20
2022-12-31T16:14:25.621Z,13.20
2022-12-31T16:16:56.778Z,13.50
2022-12-31T16:19:33.552Z,13.20
2022-12-31T16:22:09.256Z,13.20
2022-12-31T16:25:02.899Z,13.30
2022-12-31T16:27:27.701Z,13.30
2022-12-31T16:30:01.222Z,13.30
2022-12-31T16:32:36.400Z,13.30
2022-12-31T16:35:23.521Z,13.50
2022-12-31T16:38:14.266Z,13.40
2022-12-31T16:40:43.979Z,13.40
2022-12-31T16:43:28.514Z,13.30
2022-12-31T16:45:58.938Z,13.20
2022-12-31T16:48:27.686Z,13.50
2022-12-31T16:50:57.943Z,13.40
2022-12-31T16:53:39.061Z,13.30
2022-12-31T16:56:09.905Z,13.30
2022-12-31T16:58:41.280Z,13.30
2022-12-31T17:01:18.265Z,13.50
2022-12-31T17:03:50.977Z,13.40
2022-12-31T17:06:20.522Z,13.30
2022-12-31T17:09:04.643Z,13.20
2022-12-31T17:11:35.597Z,13.30
2022-12-31T17:14:14.951Z,13.40
2022-12-31T17:17:01.657Z,13.40
2022-12-31T17:19:41.279Z,13.30
2022-12-31T17:22:14.156Z,13.40
2022-12-31T17:24:43.436Z,13.50
2022-12-31T17:27:11.893Z,13.50
2022-12-31T17:29:40.096Z,13.50
2022-12-31T17:32:28.826Z,13.50
2022-12-31T17:34:56.891Z,13.50
2022-12-31T17:37:27.896Z,13.50
2022-12-31T17:40:25.046Z,13.70
2022-12-31T17:42:50.297Z,13.60
2022-12-31T17:45:22.488Z,13.70
2022-12-31T17:47:51.065Z,13.70
2022-12-31T17:50:22.194Z,14.10
2022-12-31T17:52:50.484Z,13.70
2022-12-31T17:55:20.280Z,13.60
2022-12-31T17:57:52.348Z,13.60
2022-12-31T18:00:22.033Z,14.00
2022-12-31T18:02:50.155Z,13.60
2022-12-31T18:05:19.154Z,13.90
2022-12-31T18:07:47.595Z,13.70
2022-12-31T18:10:17.477Z,13.70
2022-12-31T18:12:48.169Z,13.60
2022-12-31T18:15:17.628Z,13.70
2022-12-31T18:17:45.845Z,13.70
2022-12-31T18:20:14.421Z,13.90
2022-12-31T18:22:44.357Z,13.60
2022-12-31T18:25:22.588Z,13.70
2022-12-31T18:27:53.072Z,13.70
2022-12-31T18:30:21.237Z,13.80
2022-12-31T18:32:49.547Z,13.80
2022-12-31T18:38:12.467Z,13.70
2022-12-31T18:40:44.098Z,13.70
2022-12-31T18:43:17.502Z,13.70
2022-12-31T18:45:46.405Z,13.80
2022-12-31T18:48:14.511Z,13.80
2022-12-31T18:50:43.034Z,13.80
2022-12-31T18:53:16.570Z,13.90
2022-12-31T18:55:48.735Z,13.80
2022-12-31T18:58:18.480Z,13.80
2022-12-31T19:00:47.353Z,13.30
2022-12-31T19:03:17.138Z,13.60
2022-12-31T19:05:49.177Z,13.70
2022-12-31T19:08:17.179Z,14.20
2022-12-31T19:10:45.090Z,13.70
2022-12-31T19:13:14.619Z,13.70
2022-12-31T19:15:47.227Z,13.70
2022-12-31T19:18:15.300Z,13.60
2022-12-31T19:20:43.271Z,13.50
2022-12-31T19:23:16.401Z,13.50
2022-12-31T19:25:44.808Z,13.50
2022-12-31T19:28:17.408Z,13.50
2022-12-31T19:30:46.872Z,13.50
2022-12-31T19:33:15.384Z,13.50
2022-12-31T19:35:43.939Z,13.50
2022-12-31T19:38:18.778Z,13.40
2022-12-31T19:40:47.437Z,13.40
2022-12-31T19:43:16.261Z,13.40
2022-12-31T19:45:46.391Z,13.40
2022-12-31T19:48:15.961Z,13.70
2022-12-31T19:50:46.011Z,13.60
2022-12-31T19:53:16.585Z,13.40
2022-12-31T19:55:44.820Z,13.40
2022-12-31T19:58:19.029Z,13.40
2022-12-31T20:00:54.799Z,13.50
2022-12-31T20:03:26.798Z,13.40
2022-12-31T20:06:03.583Z,13.40
2022-12-31T20:08:31.597Z,13.50
2022-12-31T20:11:00.047Z,13.40
2022-12-31T20:13:28.133Z,13.40
2022-12-31T20:15:57.475Z,13.40
2022-12-31T20:18:25.506Z,13.40
2022-12-31T20:20:56.016Z,13.40
2022-12-31T20:23:24.250Z,13.50
2022-12-31T20:25:58.621Z,13.40
2022-12-31T20:28:26.907Z,13.40
2022-12-31T20:30:54.878Z,13.30
2022-12-31T20:33:24.436Z,13.40
2022-12-31T20:35:52.784Z,13.40
2022-12-31T20:38:20.719Z,13.50
2022-12-31T20:40:48.646Z,13.50
2022-12-31T20:43:16.596Z,13.50
2022-12-31T20:45:44.835Z,13.40
2022-12-31T20:48:12.847Z,13.60
2022-12-31T20:50:42.118Z,13.30
2022-12-31T20:53:10.080Z,13.30
2022-12-31T20:55:38.767Z,13.40
2022-12-31T20:58:06.684Z,13.40
2022-12-31T21:00:34.643Z,13.50
2022-12-31T21:03:14.283Z,13.40
2022-12-31T21:05:53.414Z,13.40
2022-12-31T21:08:21.801Z,13.50
2022-12-31T21:10:50.447Z,13.40
2022-12-31T21:13:21.625Z,13.90
2022-12-31T21:15:49.823Z,13.60
2022-12-31T21:18:18.283Z,13.80
2022-12-31T21:20:48.072Z,13.60
2022-12-31T21:23:18.054Z,13.50
2022-12-31T21:25:46.367Z,13.60
2022-12-31T21:28:14.522Z,14.30
2022-12-31T21:30:43.166Z,13.40
2022-12-31T21:33:11.139Z,13.50
2022-12-31T21:35:46.936Z,13.40
2022-12-31T21:38:21.541Z,13.60
2022-12-31T21:40:49.777Z,13.50
2022-12-31T21:43:17.835Z,13.50
2022-12-31T21:45:46.081Z,13.50
2022-12-31T21:48:22.232Z,13.50
2022-12-31T21:50:52.557Z,13.60
2022-12-31T21:53:27.869Z,13.50
2022-12-31T21:56:08.401Z,13.50
2022-12-31T21:58:36.564Z,13.40
2022-12-31T22:01:22.045Z,13.40
2022-12-31T22:03:50.152Z,13.30
2022-12-31T22:06:21.851Z,13.30
2022-12-31T22:08:53.357Z,13.40
2022-12-31T22:11:23.261Z,13.30
2022-12-31T22:13:52.084Z,13.30
2022-12-31T22:16:21.053Z,13.50
2022-12-31T22:18:49.855Z,13.30
2022-12-31T22:21:20.727Z,13.40
2022-12-31T22:23:51.862Z,13.20
2022-12-31T22:26:22.245Z,13.40
2022-12-31T22:28:50.690Z,14.10
2022-12-31T22:31:20.634Z,13.40
2022-12-31T22:33:48.836Z,13.60
2022-12-31T22:36:19.131Z,13.60
2022-12-31T22:38:47.481Z,13.40
2022-12-31T22:41:18.838Z,13.40
2022-12-31T22:43:49.094Z,13.40
2022-12-31T22:46:18.846Z,13.40
2022-12-31T22:48:47.114Z,13.40
2022-12-31T22:51:16.878Z,13.50
2022-12-31T22:53:45.248Z,13.40
2022-12-31T22:56:15.207Z,13.50
2022-12-31T22:58:45.241Z,13.50
2022-12-31T23:01:19.605Z,13.50
2022-12-31T23:03:48.608Z,13.50
2022-12-31T23:06:17.951Z,13.40
2022-12-31T23:09:06.932Z,13.40
2022-12-31T23:11:36.117Z,13.50
2022-12-31T23:14:24.360Z,13.50
2022-12-31T23:17:30.486Z,13.50
2022-12-31T23:20:16.484Z,13.50
2022-12-31T23:23:01.814Z,13.50
2022-12-31T23:25:32.070Z,13.40
2022-12-31T23:28:00.154Z,13.40
2022-12-31T23:30:29.780Z,13.40
2022-12-31T23:32:57.914Z,13.40
2022-12-31T23:35:25.936Z,13.30
2022-12-31T23:37:53.840Z,13.30
2022-12-31T23:40:22.185Z,13.40
2022-12-31T23:42:50.254Z,13.40
2022-12-31T23:45:18.405Z,13.30
2022-12-31T23:47:47.676Z,13.30
2022-12-31T23:50:15.646Z,13.20
2022-12-31T23:52:43.573Z,13.20
2022-12-31T23:55:11.540Z,13.30
2022-12-31T23:57:39.738Z,13.20
